sensor_id;sensor_type;location;lat;lon;timestamp;temperature;humidity
18712;DHT22;9485;49.386;8.674;2023-09-30T00:00:38;21.30;57.50
18712;DHT22;9485;49.386;8.674;2023-09-30T00:05:58;21.30;57.60
18712;DHT22;9485;49.386;8.674;2023-09-30T00:11:20;21.20;57.50
18712;DHT22;9485;49.386;8.674;2023-09-30T00:16:42;21.10;57.60
18712;DHT22;9485;49.386;8.674;2023-09-30T00:22:03;21.00;57.80
18712;DHT22;9485;49.386;8.674;2023-09-30T00:27:23;21.00;57.80
18712;DHT22;9485;49.386;8.674;2023-09-30T00:32:46;20.90;57.80
18712;DHT22;9485;49.386;8.674;2023-09-30T00:38:07;20.80;58.00
18712;DHT22;9485;49.386;8.674;2023-09-30T00:43:31;20.70;58.00
18712;DHT22;9485;49.386;8.674;2023-09-30T00:48:54;20.70;58.10
18712;DHT22;9485;49.386;8.674;2023-09-30T00:54:17;20.60;58.30
18712;DHT22;9485;49.386;8.674;2023-09-30T00:59:39;20.60;58.40
18712;DHT22;9485;49.386;8.674;2023-09-30T01:05:02;20.60;58.70
18712;DHT22;9485;49.386;8.674;2023-09-30T01:10:24;20.60;59.00
18712;DHT22;9485;49.386;8.674;2023-09-30T01:15:44;20.60;59.00
18712;DHT22;9485;49.386;8.674;2023-09-30T01:21:08;20.70;59.10
18712;DHT22;9485;49.386;8.674;2023-09-30T01:26:31;20.70;59.90
18712;DHT22;9485;49.386;8.674;2023-09-30T01:31:52;20.70;59.30
18712;DHT22;9485;49.386;8.674;2023-09-30T01:37:13;20.80;59.40
18712;DHT22;9485;49.386;8.674;2023-09-30T01:42:36;20.80;59.40
18712;DHT22;9485;49.386;8.674;2023-09-30T01:47:58;20.80;59.50
18712;DHT22;9485;49.386;8.674;2023-09-30T01:53:19;20.90;59.50
18712;DHT22;9485;49.386;8.674;2023-09-30T01:58:41;20.90;59.40
18712;DHT22;9485;49.386;8.674;2023-09-30T02:04:03;20.90;60.20
18712;DHT22;9485;49.386;8.674;2023-09-30T02:09:25;20.80;59.50
18712;DHT22;9485;49.386;8.674;2023-09-30T02:14:48;20.80;59.50
18712;DHT22;9485;49.386;8.674;2023-09-30T02:20:12;20.90;59.70
18712;DHT22;9485;49.386;8.674;2023-09-30T02:25:35;20.80;59.60
18712;DHT22;9485;49.386;8.674;2023-09-30T02:31:00;20.80;59.50
18712;DHT22;9485;49.386;8.674;2023-09-30T02:36:22;20.80;59.70
18712;DHT22;9485;49.386;8.674;2023-09-30T02:41:43;20.70;59.40
18712;DHT22;9485;49.386;8.674;2023-09-30T02:47:05;20.60;59.40
18712;DHT22;9485;49.386;8.674;2023-09-30T02:52:26;20.50;59.50
18712;DHT22;9485;49.386;8.674;2023-09-30T02:57:48;20.50;59.50
18712;DHT22;9485;49.386;8.674;2023-09-30T03:03:10;20.40;58.90
18712;DHT22;9485;49.386;8.674;2023-09-30T03:08:31;20.40;59.50
18712;DHT22;9485;49.386;8.674;2023-09-30T03:13:52;20.30;59.40
18712;DHT22;9485;49.386;8.674;2023-09-30T03:19:15;20.20;59.40
18712;DHT22;9485;49.386;8.674;2023-09-30T03:24:38;20.10;59.60
18712;DHT22;9485;49.386;8.674;2023-09-30T03:29:58;19.90;59.50
18712;DHT22;9485;49.386;8.674;2023-09-30T03:35:21;20.00;59.70
18712;DHT22;9485;49.386;8.674;2023-09-30T03:40:43;19.90;59.80
18712;DHT22;9485;49.386;8.674;2023-09-30T03:46:06;19.80;59.80
18712;DHT22;9485;49.386;8.674;2023-09-30T03:51:29;19.70;59.80
18712;DHT22;9485;49.386;8.674;2023-09-30T03:56:50;19.70;61.00
18712;DHT22;9485;49.386;8.674;2023-09-30T04:02:10;19.70;60.40
18712;DHT22;9485;49.386;8.674;2023-09-30T04:07:32;19.60;60.50
18712;DHT22;9485;49.386;8.674;2023-09-30T04:12:55;19.60;60.80
18712;DHT22;9485;49.386;8.674;2023-09-30T04:18:16;19.60;60.70
18712;DHT22;9485;49.386;8.674;2023-09-30T04:23:41;19.60;60.80
18712;DHT22;9485;49.386;8.674;2023-09-30T04:29:02;19.60;60.90
18712;DHT22;9485;49.386;8.674;2023-09-30T04:34:23;19.50;60.80
18712;DHT22;9485;49.386;8.674;2023-09-30T04:39:46;19.50;60.90
18712;DHT22;9485;49.386;8.674;2023-09-30T04:45:07;19.50;61.10
18712;DHT22;9485;49.386;8.674;2023-09-30T04:50:29;19.50;61.10
18712;DHT22;9485;49.386;8.674;2023-09-30T04:55:51;19.50;61.20
18712;DHT22;9485;49.386;8.674;2023-09-30T05:01:12;19.50;61.30
18712;DHT22;9485;49.386;8.674;2023-09-30T05:06:33;19.40;61.20
18712;DHT22;9485;49.386;8.674;2023-09-30T05:11:55;19.40;61.30
18712;DHT22;9485;49.386;8.674;2023-09-30T05:17:16;19.40;61.40
18712;DHT22;9485;49.386;8.674;2023-09-30T05:22:37;19.40;61.30
18712;DHT22;9485;49.386;8.674;2023-09-30T05:27:59;19.30;61.20
18712;DHT22;9485;49.386;8.674;2023-09-30T05:33:19;19.30;61.30
18712;DHT22;9485;49.386;8.674;2023-09-30T05:38:40;19.20;61.10
18712;DHT22;9485;49.386;8.674;2023-09-30T05:44:02;19.10;61.90
18712;DHT22;9485;49.386;8.674;2023-09-30T05:49:23;19.00;61.40
18712;DHT22;9485;49.386;8.674;2023-09-30T05:54:44;19.00;61.50
18712;DHT22;9485;49.386;8.674;2023-09-30T06:00:11;18.90;61.60
18712;DHT22;9485;49.386;8.674;2023-09-30T06:05:47;18.90;61.90
18712;DHT22;9485;49.386;8.674;2023-09-30T06:11:16;19.00;61.90
18712;DHT22;9485;49.386;8.674;2023-09-30T06:16:39;19.00;62.50
18712;DHT22;9485;49.386;8.674;2023-09-30T06:22:00;19.00;62.30
18712;DHT22;9485;49.386;8.674;2023-09-30T06:27:22;19.00;62.40
18712;DHT22;9485;49.386;8.674;2023-09-30T06:32:45;19.10;62.70
18712;DHT22;9485;49.386;8.674;2023-09-30T06:38:06;19.20;63.00
18712;DHT22;9485;49.386;8.674;2023-09-30T06:43:27;19.30;62.90
18712;DHT22;9485;49.386;8.674;2023-09-30T06:48:49;19.40;62.90
18712;DHT22;9485;49.386;8.674;2023-09-30T06:54:11;19.50;63.20
18712;DHT22;9485;49.386;8.674;2023-09-30T06:59:32;19.70;63.20
18712;DHT22;9485;49.386;8.674;2023-09-30T07:04:55;19.80;63.10
18712;DHT22;9485;49.386;8.674;2023-09-30T07:10:17;19.90;63.10
18712;DHT22;9485;49.386;8.674;2023-09-30T07:15:38;20.10;63.10
18712;DHT22;9485;49.386;8.674;2023-09-30T07:21:00;20.30;63.20
18712;DHT22;9485;49.386;8.674;2023-09-30T07:26:24;20.50;64.10
18712;DHT22;9485;49.386;8.674;2023-09-30T07:31:45;20.70;63.30
18712;DHT22;9485;49.386;8.674;2023-09-30T07:37:07;20.90;63.10
18712;DHT22;9485;49.386;8.674;2023-09-30T07:42:28;21.10;62.70
18712;DHT22;9485;49.386;8.674;2023-09-30T07:47:49;21.30;62.20
18712;DHT22;9485;49.386;8.674;2023-09-30T07:53:13;21.50;61.80
18712;DHT22;9485;49.386;8.674;2023-09-30T07:58:34;21.60;61.50
18712;DHT22;9485;49.386;8.674;2023-09-30T08:03:54;21.80;61.50
18712;DHT22;9485;49.386;8.674;2023-09-30T08:09:16;22.00;61.30
18712;DHT22;9485;49.386;8.674;2023-09-30T08:14:37;22.30;60.50
18712;DHT22;9485;49.386;8.674;2023-09-30T08:19:59;22.50;60.20
18712;DHT22;9485;49.386;8.674;2023-09-30T08:25:21;22.90;60.20
18712;DHT22;9485;49.386;8.674;2023-09-30T08:30:42;23.20;60.20
18712;DHT22;9485;49.386;8.674;2023-09-30T08:36:04;23.70;60.20
18712;DHT22;9485;49.386;8.674;2023-09-30T08:41:33;24.30;60.10
18712;DHT22;9485;49.386;8.674;2023-09-30T08:46:56;25.10;59.50
18712;DHT22;9485;49.386;8.674;2023-09-30T08:52:19;26.00;59.50
18712;DHT22;9485;49.386;8.674;2023-09-30T08:57:43;26.80;58.70
18712;DHT22;9485;49.386;8.674;2023-09-30T09:03:07;27.60;57.10
18712;DHT22;9485;49.386;8.674;2023-09-30T09:08:29;28.30;56.50
18712;DHT22;9485;49.386;8.674;2023-09-30T09:13:52;28.90;55.80
18712;DHT22;9485;49.386;8.674;2023-09-30T09:19:15;29.70;54.50
18712;DHT22;9485;49.386;8.674;2023-09-30T09:24:37;30.40;54.20
18712;DHT22;9485;49.386;8.674;2023-09-30T09:30:14;31.00;52.90
18712;DHT22;9485;49.386;8.674;2023-09-30T09:35:36;31.50;50.60
18712;DHT22;9485;49.386;8.674;2023-09-30T09:40:59;31.90;51.30
18712;DHT22;9485;49.386;8.674;2023-09-30T09:46:24;32.30;49.30
18712;DHT22;9485;49.386;8.674;2023-09-30T09:51:46;32.60;49.10
18712;DHT22;9485;49.386;8.674;2023-09-30T09:57:10;33.00;48.90
18712;DHT22;9485;49.386;8.674;2023-09-30T10:02:32;33.40;47.80
18712;DHT22;9485;49.386;8.674;2023-09-30T10:07:56;33.70;46.50
18712;DHT22;9485;49.386;8.674;2023-09-30T10:13:53;33.90;45.90
18712;DHT22;9485;49.386;8.674;2023-09-30T10:19:19;33.80;44.30
18712;DHT22;9485;49.386;8.674;2023-09-30T10:24:42;33.40;44.50
18712;DHT22;9485;49.386;8.674;2023-09-30T10:30:11;33.00;44.80
18712;DHT22;9485;49.386;8.674;2023-09-30T10:35:50;33.00;43.70
18712;DHT22;9485;49.386;8.674;2023-09-30T10:41:48;33.40;43.10
18712;DHT22;9485;49.386;8.674;2023-09-30T10:47:34;33.60;42.50
18712;DHT22;9485;49.386;8.674;2023-09-30T10:53:03;33.10;42.20
18712;DHT22;9485;49.386;8.674;2023-09-30T10:58:39;32.50;42.10
18712;DHT22;9485;49.386;8.674;2023-09-30T11:04:03;31.80;42.40
18712;DHT22;9485;49.386;8.674;2023-09-30T11:09:28;31.20;43.30
18712;DHT22;9485;49.386;8.674;2023-09-30T11:14:59;30.60;43.50
18712;DHT22;9485;49.386;8.674;2023-09-30T11:20:21;30.20;43.20
18712;DHT22;9485;49.386;8.674;2023-09-30T11:25:43;29.70;44.00
18712;DHT22;9485;49.386;8.674;2023-09-30T11:31:03;29.30;44.20
18712;DHT22;9485;49.386;8.674;2023-09-30T11:36:28;28.90;44.60
18712;DHT22;9485;49.386;8.674;2023-09-30T11:41:52;28.60;45.00
18712;DHT22;9485;49.386;8.674;2023-09-30T11:47:14;28.50;45.30
18712;DHT22;9485;49.386;8.674;2023-09-30T11:52:35;28.90;45.40
18712;DHT22;9485;49.386;8.674;2023-09-30T11:58:00;29.70;44.80
18712;DHT22;9485;49.386;8.674;2023-09-30T12:03:22;30.40;44.00
18712;DHT22;9485;49.386;8.674;2023-09-30T12:08:43;31.10;43.50
18712;DHT22;9485;49.386;8.674;2023-09-30T12:14:05;31.80;42.70
18712;DHT22;9485;49.386;8.674;2023-09-30T12:19:27;32.30;41.90
18712;DHT22;9485;49.386;8.674;2023-09-30T12:24:48;32.40;41.90
18712;DHT22;9485;49.386;8.674;2023-09-30T12:30:12;32.10;41.50
18712;DHT22;9485;49.386;8.674;2023-09-30T12:35:34;31.80;41.60
18712;DHT22;9485;49.386;8.674;2023-09-30T12:40:55;31.80;41.90
18712;DHT22;9485;49.386;8.674;2023-09-30T12:46:18;31.90;41.90
18712;DHT22;9485;49.386;8.674;2023-09-30T12:51:42;31.90;41.20
18712;DHT22;9485;49.386;8.674;2023-09-30T12:57:03;31.50;41.50
18712;DHT22;9485;49.386;8.674;2023-09-30T13:02:27;31.20;42.00
18712;DHT22;9485;49.386;8.674;2023-09-30T13:07:49;31.20;42.00
18712;DHT22;9485;49.386;8.674;2023-09-30T13:13:10;31.20;42.20
18712;DHT22;9485;49.386;8.674;2023-09-30T13:18:33;31.40;42.20
18712;DHT22;9485;49.386;8.674;2023-09-30T13:23:57;31.40;41.60
18712;DHT22;9485;49.386;8.674;2023-09-30T13:29:19;31.30;41.70
18712;DHT22;9485;49.386;8.674;2023-09-30T13:34:41;31.10;41.40
18712;DHT22;9485;49.386;8.674;2023-09-30T13:40:03;30.90;41.00
18712;DHT22;9485;49.386;8.674;2023-09-30T13:45:28;30.60;41.20
18712;DHT22;9485;49.386;8.674;2023-09-30T13:50:50;30.10;41.10
18712;DHT22;9485;49.386;8.674;2023-09-30T13:56:10;29.70;41.20
18712;DHT22;9485;49.386;8.674;2023-09-30T14:01:31;29.30;41.50
18712;DHT22;9485;49.386;8.674;2023-09-30T14:06:53;29.00;41.80
18712;DHT22;9485;49.386;8.674;2023-09-30T14:12:15;28.70;41.90
18712;DHT22;9485;49.386;8.674;2023-09-30T14:17:36;28.50;41.90
18712;DHT22;9485;49.386;8.674;2023-09-30T14:22:59;28.20;42.20
18712;DHT22;9485;49.386;8.674;2023-09-30T14:28:22;28.10;42.50
18712;DHT22;9485;49.386;8.674;2023-09-30T14:33:43;27.90;42.70
18712;DHT22;9485;49.386;8.674;2023-09-30T14:39:05;27.70;42.50
18712;DHT22;9485;49.386;8.674;2023-09-30T14:44:27;27.60;42.90
18712;DHT22;9485;49.386;8.674;2023-09-30T14:49:49;27.50;42.90
18712;DHT22;9485;49.386;8.674;2023-09-30T14:55:12;27.30;42.80
18712;DHT22;9485;49.386;8.674;2023-09-30T15:00:36;27.20;43.50
18712;DHT22;9485;49.386;8.674;2023-09-30T15:05:59;27.10;43.30
18712;DHT22;9485;49.386;8.674;2023-09-30T15:11:22;26.90;43.20
18712;DHT22;9485;49.386;8.674;2023-09-30T15:16:43;26.80;43.50
18712;DHT22;9485;49.386;8.674;2023-09-30T15:22:05;26.70;43.50
18712;DHT22;9485;49.386;8.674;2023-09-30T15:27:27;26.60;43.70
18712;DHT22;9485;49.386;8.674;2023-09-30T15:32:47;26.50;43.70
18712;DHT22;9485;49.386;8.674;2023-09-30T15:38:08;26.40;43.60
18712;DHT22;9485;49.386;8.674;2023-09-30T15:43:33;26.20;43.70
18712;DHT22;9485;49.386;8.674;2023-09-30T15:48:55;26.10;44.00
18712;DHT22;9485;49.386;8.674;2023-09-30T15:54:17;26.00;44.00
18712;DHT22;9485;49.386;8.674;2023-09-30T15:59:39;25.90;44.20
18712;DHT22;9485;49.386;8.674;2023-09-30T16:05:02;25.70;44.10
18712;DHT22;9485;49.386;8.674;2023-09-30T16:10:23;25.60;44.40
18712;DHT22;9485;49.386;8.674;2023-09-30T16:15:45;25.40;44.60
18712;DHT22;9485;49.386;8.674;2023-09-30T16:21:07;25.20;44.90
18712;DHT22;9485;49.386;8.674;2023-09-30T16:26:27;25.10;45.10
18712;DHT22;9485;49.386;8.674;2023-09-30T16:31:51;24.90;45.20
18712;DHT22;9485;49.386;8.674;2023-09-30T16:37:12;24.70;45.40
18712;DHT22;9485;49.386;8.674;2023-09-30T16:42:32;24.60;45.60
18712;DHT22;9485;49.386;8.674;2023-09-30T16:47:54;24.40;45.80
18712;DHT22;9485;49.386;8.674;2023-09-30T16:53:16;24.30;46.00
18712;DHT22;9485;49.386;8.674;2023-09-30T16:58:38;24.20;46.20
18712;DHT22;9485;49.386;8.674;2023-09-30T17:04:02;24.00;46.20
18712;DHT22;9485;49.386;8.674;2023-09-30T17:09:23;23.90;46.40
18712;DHT22;9485;49.386;8.674;2023-09-30T17:14:43;23.70;46.60
18712;DHT22;9485;49.386;8.674;2023-09-30T17:20:07;23.50;46.70
18712;DHT22;9485;49.386;8.674;2023-09-30T17:25:29;23.30;46.90
18712;DHT22;9485;49.386;8.674;2023-09-30T17:30:51;23.20;47.10
18712;DHT22;9485;49.386;8.674;2023-09-30T17:36:13;23.00;47.30
18712;DHT22;9485;49.386;8.674;2023-09-30T17:41:34;22.80;47.60
18712;DHT22;9485;49.386;8.674;2023-09-30T17:46:56;22.60;47.70
18712;DHT22;9485;49.386;8.674;2023-09-30T17:52:18;22.40;47.90
18712;DHT22;9485;49.386;8.674;2023-09-30T17:57:41;22.30;48.20
18712;DHT22;9485;49.386;8.674;2023-09-30T18:03:02;22.10;48.30
18712;DHT22;9485;49.386;8.674;2023-09-30T18:08:25;21.90;48.50
18712;DHT22;9485;49.386;8.674;2023-09-30T18:13:46;21.80;48.70
18712;DHT22;9485;49.386;8.674;2023-09-30T18:19:07;21.70;48.80
18712;DHT22;9485;49.386;8.674;2023-09-30T18:24:30;21.60;49.00
18712;DHT22;9485;49.386;8.674;2023-09-30T18:29:50;21.50;49.20
18712;DHT22;9485;49.386;8.674;2023-09-30T18:35:10;21.40;49.20
18712;DHT22;9485;49.386;8.674;2023-09-30T18:40:33;21.30;49.30
18712;DHT22;9485;49.386;8.674;2023-09-30T18:45:54;21.10;49.60
18712;DHT22;9485;49.386;8.674;2023-09-30T18:51:18;21.00;49.60
18712;DHT22;9485;49.386;8.674;2023-09-30T18:56:41;20.90;50.00
18712;DHT22;9485;49.386;8.674;2023-09-30T19:02:03;20.70;50.00
18712;DHT22;9485;49.386;8.674;2023-09-30T19:07:24;20.60;50.10
18712;DHT22;9485;49.386;8.674;2023-09-30T19:12:46;20.50;50.30
18712;DHT22;9485;49.386;8.674;2023-09-30T19:18:06;20.40;50.50
18712;DHT22;9485;49.386;8.674;2023-09-30T19:23:27;20.30;50.60
18712;DHT22;9485;49.386;8.674;2023-09-30T19:28:52;20.20;50.70
18712;DHT22;9485;49.386;8.674;2023-09-30T19:34:15;20.10;51.00
18712;DHT22;9485;49.386;8.674;2023-09-30T19:39:36;20.00;51.10
18712;DHT22;9485;49.386;8.674;2023-09-30T19:44:59;19.90;51.20
18712;DHT22;9485;49.386;8.674;2023-09-30T19:50:23;19.80;51.50
18712;DHT22;9485;49.386;8.674;2023-09-30T19:55:46;19.70;51.50
18712;DHT22;9485;49.386;8.674;2023-09-30T20:01:09;19.60;51.60
18712;DHT22;9485;49.386;8.674;2023-09-30T20:06:31;19.50;51.90
18712;DHT22;9485;49.386;8.674;2023-09-30T20:11:53;19.40;51.90
18712;DHT22;9485;49.386;8.674;2023-09-30T20:17:22;19.40;52.10
18712;DHT22;9485;49.386;8.674;2023-09-30T20:22:43;19.30;52.30
18712;DHT22;9485;49.386;8.674;2023-09-30T20:28:05;19.20;52.40
18712;DHT22;9485;49.386;8.674;2023-09-30T20:33:27;19.10;52.50
18712;DHT22;9485;49.386;8.674;2023-09-30T20:38:48;19.00;52.70
18712;DHT22;9485;49.386;8.674;2023-09-30T20:44:09;19.00;52.70
18712;DHT22;9485;49.386;8.674;2023-09-30T20:49:33;19.00;52.80
18712;DHT22;9485;49.386;8.674;2023-09-30T20:54:55;18.90;53.60
18712;DHT22;9485;49.386;8.674;2023-09-30T21:00:16;18.80;53.00
18712;DHT22;9485;49.386;8.674;2023-09-30T21:05:40;18.70;53.10
18712;DHT22;9485;49.386;8.674;2023-09-30T21:11:02;18.70;53.40
18712;DHT22;9485;49.386;8.674;2023-09-30T21:16:23;18.60;53.30
18712;DHT22;9485;49.386;8.674;2023-09-30T21:21:46;18.60;53.40
18712;DHT22;9485;49.386;8.674;2023-09-30T21:27:07;18.50;53.60
18712;DHT22;9485;49.386;8.674;2023-09-30T21:32:29;18.40;53.60
18712;DHT22;9485;49.386;8.674;2023-09-30T21:37:51;18.40;53.70
18712;DHT22;9485;49.386;8.674;2023-09-30T21:43:12;18.30;53.90
18712;DHT22;9485;49.386;8.674;2023-09-30T21:48:32;18.30;54.00
18712;DHT22;9485;49.386;8.674;2023-09-30T21:53:55;18.20;54.10
18712;DHT22;9485;49.386;8.674;2023-09-30T21:59:16;18.20;54.30
18712;DHT22;9485;49.386;8.674;2023-09-30T22:04:36;18.10;54.30
18712;DHT22;9485;49.386;8.674;2023-09-30T22:09:58;18.00;54.30
18712;DHT22;9485;49.386;8.674;2023-09-30T22:15:20;18.00;54.50
18712;DHT22;9485;49.386;8.674;2023-09-30T22:20:43;17.90;54.40
18712;DHT22;9485;49.386;8.674;2023-09-30T22:26:06;17.80;54.00
18712;DHT22;9485;49.386;8.674;2023-09-30T22:31:28;17.80;54.70
18712;DHT22;9485;49.386;8.674;2023-09-30T22:36:51;17.70;54.70
18712;DHT22;9485;49.386;8.674;2023-09-30T22:42:13;17.70;54.80
18712;DHT22;9485;49.386;8.674;2023-09-30T22:47:41;17.60;55.10
18712;DHT22;9485;49.386;8.674;2023-09-30T22:53:03;17.60;55.50
18712;DHT22;9485;49.386;8.674;2023-09-30T22:58:28;17.50;55.10
18712;DHT22;9485;49.386;8.674;2023-09-30T23:03:49;17.50;55.50
18712;DHT22;9485;49.386;8.674;2023-09-30T23:09:11;17.50;55.30
18712;DHT22;9485;49.386;8.674;2023-09-30T23:14:33;17.40;55.30
18712;DHT22;9485;49.386;8.674;2023-09-30T23:19:54;17.40;55.60
18712;DHT22;9485;49.386;8.674;2023-09-30T23:25:16;17.30;55.50
18712;DHT22;9485;49.386;8.674;2023-09-30T23:30:39;17.30;55.70
18712;DHT22;9485;49.386;8.674;2023-09-30T23:36:01;17.30;55.90
18712;DHT22;9485;49.386;8.674;2023-09-30T23:41:22;17.20;55.80
18712;DHT22;9485;49.386;8.674;2023-09-30T23:46:45;17.20;56.10
18712;DHT22;9485;49.386;8.674;2023-09-30T23:52:07;17.10;56.00
18712;DHT22;9485;49.386;8.674;2023-09-30T23:57:28;17.10;55.90
